sensor_id;sensor_type;location;lat;lon;timestamp;P1;durP1;ratioP1;P2;durP2;ratioP2
21046;SDS011;10682;50.874;3.656;2023-11-21T00:01:27;30.20;;;15.87;;
21046;SDS011;10682;50.874;3.656;2023-11-21T00:03:54;29.30;;;15.47;;
21046;SDS011;10682;50.874;3.656;2023-11-21T00:06:21;31.10;;;17.50;;
21046;SDS011;10682;50.874;3.656;2023-11-21T00:08:48;36.07;;;17.83;;
21046;SDS011;10682;50.874;3.656;2023-11-21T00:11:15;35.77;;;16.50;;
21046;SDS011;10682;50.874;3.656;2023-11-21T00:13:42;38.73;;;17.40;;
21046;SDS011;10682;50.874;3.656;2023-11-21T00:16:10;39.50;;;17.30;;
21046;SDS011;10682;50.874;3.656;2023-11-21T00:18:38;37.43;;;16.43;;
21046;SDS011;10682;50.874;3.656;2023-11-21T00:21:05;34.30;;;17.43;;
21046;SDS011;10682;50.874;3.656;2023-11-21T00:23:33;38.23;;;17.67;;
21046;SDS011;10682;50.874;3.656;2023-11-21T00:26:00;37.27;;;17.33;;
21046;SDS011;10682;50.874;3.656;2023-11-21T00:28:33;44.87;;;18.67;;
21046;SDS011;10682;50.874;3.656;2023-11-21T00:31:00;39.10;;;17.90;;
21046;SDS011;10682;50.874;3.656;2023-11-21T00:33:27;35.90;;;17.73;;
21046;SDS011;10682;50.874;3.656;2023-11-21T00:35:54;38.13;;;16.80;;
21046;SDS011;10682;50.874;3.656;2023-11-21T00:38:21;39.13;;;17.33;;
21046;SDS011;10682;50.874;3.656;2023-11-21T00:40:48;36.83;;;17.17;;
21046;SDS011;10682;50.874;3.656;2023-11-21T00:43:15;42.47;;;16.93;;
21046;SDS011;10682;50.874;3.656;2023-11-21T00:45:43;37.47;;;16.73;;
21046;SDS011;10682;50.874;3.656;2023-11-21T00:48:10;36.07;;;17.33;;
21046;SDS011;10682;50.874;3.656;2023-11-21T00:50:38;32.40;;;15.97;;
21046;SDS011;10682;50.874;3.656;2023-11-21T00:53:06;36.93;;;15.83;;
21046;SDS011;10682;50.874;3.656;2023-11-21T00:55:33;36.67;;;16.70;;
21046;SDS011;10682;50.874;3.656;2023-11-21T00:58:01;41.00;;;16.57;;
21046;SDS011;10682;50.874;3.656;2023-11-21T01:00:30;30.80;;;15.20;;
21046;SDS011;10682;50.874;3.656;2023-11-21T01:02:57;31.47;;;15.20;;
21046;SDS011;10682;50.874;3.656;2023-11-21T01:05:24;38.23;;;14.33;;
21046;SDS011;10682;50.874;3.656;2023-11-21T01:07:51;36.37;;;14.83;;
21046;SDS011;10682;50.874;3.656;2023-11-21T01:10:19;29.00;;;14.17;;
21046;SDS011;10682;50.874;3.656;2023-11-21T01:12:46;31.20;;;14.40;;
21046;SDS011;10682;50.874;3.656;2023-11-21T01:15:15;27.47;;;13.17;;
21046;SDS011;10682;50.874;3.656;2023-11-21T01:17:42;31.40;;;14.47;;
21046;SDS011;10682;50.874;3.656;2023-11-21T01:20:09;31.40;;;13.87;;
21046;SDS011;10682;50.874;3.656;2023-11-21T01:22:40;24.50;;;13.87;;
21046;SDS011;10682;50.874;3.656;2023-11-21T01:25:07;37.57;;;13.33;;
21046;SDS011;10682;50.874;3.656;2023-11-21T01:27:37;32.00;;;13.27;;
21046;SDS011;10682;50.874;3.656;2023-11-21T01:30:05;29.37;;;13.57;;
21046;SDS011;10682;50.874;3.656;2023-11-21T01:32:34;29.53;;;12.60;;
21046;SDS011;10682;50.874;3.656;2023-11-21T01:35:01;30.30;;;13.00;;
21046;SDS011;10682;50.874;3.656;2023-11-21T01:37:28;29.43;;;13.13;;
21046;SDS011;10682;50.874;3.656;2023-11-21T01:39:56;32.27;;;12.60;;
21046;SDS011;10682;50.874;3.656;2023-11-21T01:42:25;25.77;;;12.47;;
21046;SDS011;10682;50.874;3.656;2023-11-21T01:44:53;26.03;;;12.27;;
21046;SDS011;10682;50.874;3.656;2023-11-21T01:47:21;23.27;;;11.90;;
21046;SDS011;10682;50.874;3.656;2023-11-21T01:49:48;27.67;;;12.30;;
21046;SDS011;10682;50.874;3.656;2023-11-21T01:52:15;26.07;;;12.37;;
21046;SDS011;10682;50.874;3.656;2023-11-21T01:54:43;32.30;;;12.37;;
21046;SDS011;10682;50.874;3.656;2023-11-21T01:57:10;42.43;;;13.67;;
21046;SDS011;10682;50.874;3.656;2023-11-21T01:59:37;29.37;;;12.17;;
21046;SDS011;10682;50.874;3.656;2023-11-21T02:02:08;27.00;;;12.30;;
21046;SDS011;10682;50.874;3.656;2023-11-21T02:04:36;27.97;;;12.63;;
21046;SDS011;10682;50.874;3.656;2023-11-21T02:07:04;23.37;;;10.83;;
21046;SDS011;10682;50.874;3.656;2023-11-21T02:09:34;29.37;;;11.30;;
21046;SDS011;10682;50.874;3.656;2023-11-21T02:12:04;32.33;;;11.63;;
21046;SDS011;10682;50.874;3.656;2023-11-21T02:14:32;24.97;;;11.80;;
21046;SDS011;10682;50.874;3.656;2023-11-21T02:16:59;31.67;;;12.37;;
21046;SDS011;10682;50.874;3.656;2023-11-21T02:19:27;34.03;;;11.97;;
21046;SDS011;10682;50.874;3.656;2023-11-21T02:21:56;28.13;;;11.33;;
21046;SDS011;10682;50.874;3.656;2023-11-21T02:24:29;27.33;;;11.13;;
21046;SDS011;10682;50.874;3.656;2023-11-21T02:26:57;25.07;;;11.63;;
21046;SDS011;10682;50.874;3.656;2023-11-21T02:29:24;32.20;;;11.90;;
21046;SDS011;10682;50.874;3.656;2023-11-21T02:31:55;29.37;;;12.07;;
21046;SDS011;10682;50.874;3.656;2023-11-21T02:34:23;26.13;;;11.83;;
21046;SDS011;10682;50.874;3.656;2023-11-21T02:36:51;29.00;;;11.70;;
21046;SDS011;10682;50.874;3.656;2023-11-21T02:39:27;27.17;;;11.80;;
21046;SDS011;10682;50.874;3.656;2023-11-21T02:41:54;29.17;;;11.77;;
21046;SDS011;10682;50.874;3.656;2023-11-21T02:44:21;29.10;;;11.50;;
21046;SDS011;10682;50.874;3.656;2023-11-21T02:46:48;42.40;;;13.20;;
21046;SDS011;10682;50.874;3.656;2023-11-21T02:49:15;31.87;;;11.90;;
21046;SDS011;10682;50.874;3.656;2023-11-21T02:51:43;31.07;;;11.93;;
21046;SDS011;10682;50.874;3.656;2023-11-21T02:54:11;38.97;;;13.03;;
21046;SDS011;10682;50.874;3.656;2023-11-21T02:56:38;25.87;;;11.27;;
21046;SDS011;10682;50.874;3.656;2023-11-21T02:59:06;31.93;;;12.07;;
21046;SDS011;10682;50.874;3.656;2023-11-21T03:01:33;25.63;;;11.33;;
21046;SDS011;10682;50.874;3.656;2023-11-21T03:04:00;33.47;;;12.70;;
21046;SDS011;10682;50.874;3.656;2023-11-21T03:06:28;27.57;;;11.50;;
21046;SDS011;10682;50.874;3.656;2023-11-21T03:08:55;27.87;;;11.60;;
21046;SDS011;10682;50.874;3.656;2023-11-21T03:11:22;32.53;;;11.73;;
21046;SDS011;10682;50.874;3.656;2023-11-21T03:13:49;35.73;;;12.13;;
21046;SDS011;10682;50.874;3.656;2023-11-21T03:16:17;26.63;;;11.93;;
21046;SDS011;10682;50.874;3.656;2023-11-21T03:18:45;30.77;;;11.53;;
21046;SDS011;10682;50.874;3.656;2023-11-21T03:21:13;38.70;;;12.30;;
21046;SDS011;10682;50.874;3.656;2023-11-21T03:23:40;28.47;;;11.43;;
21046;SDS011;10682;50.874;3.656;2023-11-21T03:26:11;31.73;;;12.17;;
21046;SDS011;10682;50.874;3.656;2023-11-21T03:28:39;33.57;;;11.97;;
21046;SDS011;10682;50.874;3.656;2023-11-21T03:31:06;30.23;;;12.43;;
21046;SDS011;10682;50.874;3.656;2023-11-21T03:33:35;32.57;;;13.03;;
21046;SDS011;10682;50.874;3.656;2023-11-21T03:36:02;32.67;;;12.93;;
21046;SDS011;10682;50.874;3.656;2023-11-21T03:38:30;28.33;;;12.40;;
21046;SDS011;10682;50.874;3.656;2023-11-21T03:40:58;35.90;;;13.07;;
21046;SDS011;10682;50.874;3.656;2023-11-21T03:43:25;33.90;;;13.07;;
21046;SDS011;10682;50.874;3.656;2023-11-21T03:45:54;33.67;;;12.73;;
21046;SDS011;10682;50.874;3.656;2023-11-21T03:48:21;28.37;;;12.97;;
21046;SDS011;10682;50.874;3.656;2023-11-21T03:50:49;29.13;;;12.37;;
21046;SDS011;10682;50.874;3.656;2023-11-21T03:53:16;29.17;;;11.90;;
21046;SDS011;10682;50.874;3.656;2023-11-21T03:55:44;31.33;;;12.40;;
21046;SDS011;10682;50.874;3.656;2023-11-21T03:58:12;32.70;;;13.40;;
21046;SDS011;10682;50.874;3.656;2023-11-21T04:00:39;39.30;;;13.70;;
21046;SDS011;10682;50.874;3.656;2023-11-21T04:03:06;34.17;;;12.07;;
21046;SDS011;10682;50.874;3.656;2023-11-21T04:05:33;26.23;;;13.40;;
21046;SDS011;10682;50.874;3.656;2023-11-21T04:08:00;29.30;;;12.13;;
21046;SDS011;10682;50.874;3.656;2023-11-21T04:10:27;28.73;;;12.23;;
21046;SDS011;10682;50.874;3.656;2023-11-21T04:12:55;30.00;;;12.57;;
21046;SDS011;10682;50.874;3.656;2023-11-21T04:15:22;27.10;;;12.17;;
21046;SDS011;10682;50.874;3.656;2023-11-21T04:17:49;29.60;;;13.23;;
21046;SDS011;10682;50.874;3.656;2023-11-21T04:20:16;32.57;;;13.80;;
21046;SDS011;10682;50.874;3.656;2023-11-21T04:22:44;36.57;;;13.53;;
21046;SDS011;10682;50.874;3.656;2023-11-21T04:25:12;32.57;;;12.90;;
21046;SDS011;10682;50.874;3.656;2023-11-21T04:27:42;27.13;;;13.43;;
21046;SDS011;10682;50.874;3.656;2023-11-21T04:30:10;31.57;;;14.77;;
21046;SDS011;10682;50.874;3.656;2023-11-21T04:32:39;31.27;;;13.67;;
21046;SDS011;10682;50.874;3.656;2023-11-21T04:35:06;36.33;;;13.43;;
21046;SDS011;10682;50.874;3.656;2023-11-21T04:37:35;32.33;;;13.60;;
21046;SDS011;10682;50.874;3.656;2023-11-21T04:40:03;28.97;;;14.10;;
21046;SDS011;10682;50.874;3.656;2023-11-21T04:42:37;34.53;;;13.83;;
21046;SDS011;10682;50.874;3.656;2023-11-21T04:45:05;34.57;;;13.17;;
21046;SDS011;10682;50.874;3.656;2023-11-21T04:47:36;30.23;;;13.63;;
21046;SDS011;10682;50.874;3.656;2023-11-21T04:50:04;26.83;;;12.97;;
21046;SDS011;10682;50.874;3.656;2023-11-21T04:52:33;33.27;;;13.70;;
21046;SDS011;10682;50.874;3.656;2023-11-21T04:55:00;30.17;;;13.47;;
21046;SDS011;10682;50.874;3.656;2023-11-21T04:57:29;31.10;;;12.67;;
21046;SDS011;10682;50.874;3.656;2023-11-21T04:59:56;32.40;;;13.73;;
21046;SDS011;10682;50.874;3.656;2023-11-21T05:02:23;32.63;;;14.03;;
21046;SDS011;10682;50.874;3.656;2023-11-21T05:05:01;28.87;;;14.20;;
21046;SDS011;10682;50.874;3.656;2023-11-21T05:07:29;37.27;;;14.20;;
21046;SDS011;10682;50.874;3.656;2023-11-21T05:09:58;25.33;;;13.43;;
21046;SDS011;10682;50.874;3.656;2023-11-21T05:12:25;18.23;;;10.97;;
21046;SDS011;10682;50.874;3.656;2023-11-21T05:14:52;17.93;;;10.43;;
21046;SDS011;10682;50.874;3.656;2023-11-21T05:17:20;38.23;;;14.73;;
21046;SDS011;10682;50.874;3.656;2023-11-21T05:19:47;32.63;;;14.03;;
21046;SDS011;10682;50.874;3.656;2023-11-21T05:22:15;27.03;;;13.00;;
21046;SDS011;10682;50.874;3.656;2023-11-21T05:24:42;30.13;;;13.63;;
21046;SDS011;10682;50.874;3.656;2023-11-21T05:27:10;31.83;;;13.60;;
21046;SDS011;10682;50.874;3.656;2023-11-21T05:29:37;32.53;;;13.97;;
21046;SDS011;10682;50.874;3.656;2023-11-21T05:32:04;31.57;;;13.83;;
21046;SDS011;10682;50.874;3.656;2023-11-21T05:34:31;38.00;;;13.53;;
21046;SDS011;10682;50.874;3.656;2023-11-21T05:36:59;34.87;;;13.03;;
21046;SDS011;10682;50.874;3.656;2023-11-21T05:39:26;30.03;;;13.43;;
21046;SDS011;10682;50.874;3.656;2023-11-21T05:41:54;34.07;;;14.53;;
21046;SDS011;10682;50.874;3.656;2023-11-21T05:44:21;25.40;;;12.77;;
21046;SDS011;10682;50.874;3.656;2023-11-21T05:46:50;32.30;;;12.50;;
21046;SDS011;10682;50.874;3.656;2023-11-21T05:49:17;24.60;;;12.73;;
21046;SDS011;10682;50.874;3.656;2023-11-21T05:51:48;27.47;;;13.20;;
21046;SDS011;10682;50.874;3.656;2023-11-21T05:54:15;31.23;;;13.77;;
21046;SDS011;10682;50.874;3.656;2023-11-21T05:59:15;20.27;;;9.97;;
21046;SDS011;10682;50.874;3.656;2023-11-21T06:01:43;27.90;;;12.70;;
21046;SDS011;10682;50.874;3.656;2023-11-21T06:04:13;32.90;;;14.43;;
21046;SDS011;10682;50.874;3.656;2023-11-21T06:06:41;30.23;;;14.10;;
21046;SDS011;10682;50.874;3.656;2023-11-21T06:09:08;27.30;;;13.90;;
21046;SDS011;10682;50.874;3.656;2023-11-21T06:11:35;27.80;;;14.83;;
21046;SDS011;10682;50.874;3.656;2023-11-21T06:14:02;29.23;;;15.40;;
21046;SDS011;10682;50.874;3.656;2023-11-21T06:16:30;32.50;;;14.77;;
21046;SDS011;10682;50.874;3.656;2023-11-21T06:18:57;30.93;;;14.30;;
21046;SDS011;10682;50.874;3.656;2023-11-21T06:21:24;35.90;;;15.20;;
21046;SDS011;10682;50.874;3.656;2023-11-21T06:23:51;33.50;;;15.30;;
21046;SDS011;10682;50.874;3.656;2023-11-21T06:26:19;36.00;;;16.73;;
21046;SDS011;10682;50.874;3.656;2023-11-21T06:28:46;28.00;;;14.57;;
21046;SDS011;10682;50.874;3.656;2023-11-21T06:31:14;32.17;;;14.53;;
21046;SDS011;10682;50.874;3.656;2023-11-21T06:33:41;23.77;;;12.53;;
21046;SDS011;10682;50.874;3.656;2023-11-21T06:36:08;37.20;;;15.43;;
21046;SDS011;10682;50.874;3.656;2023-11-21T06:38:37;27.43;;;14.40;;
21046;SDS011;10682;50.874;3.656;2023-11-21T06:41:05;38.83;;;17.17;;
21046;SDS011;10682;50.874;3.656;2023-11-21T06:43:33;31.43;;;15.47;;
21046;SDS011;10682;50.874;3.656;2023-11-21T06:46:01;26.27;;;13.60;;
21046;SDS011;10682;50.874;3.656;2023-11-21T06:48:28;27.07;;;14.23;;
21046;SDS011;10682;50.874;3.656;2023-11-21T06:50:56;27.10;;;13.77;;
21046;SDS011;10682;50.874;3.656;2023-11-21T06:53:23;29.17;;;14.50;;
21046;SDS011;10682;50.874;3.656;2023-11-21T06:55:53;34.40;;;15.50;;
21046;SDS011;10682;50.874;3.656;2023-11-21T06:58:20;34.37;;;14.93;;
21046;SDS011;10682;50.874;3.656;2023-11-21T07:00:47;41.23;;;15.40;;
21046;SDS011;10682;50.874;3.656;2023-11-21T07:03:28;32.57;;;14.17;;
21046;SDS011;10682;50.874;3.656;2023-11-21T07:05:56;38.00;;;14.87;;
21046;SDS011;10682;50.874;3.656;2023-11-21T07:08:23;29.17;;;13.53;;
21046;SDS011;10682;50.874;3.656;2023-11-21T07:10:50;30.50;;;15.50;;
21046;SDS011;10682;50.874;3.656;2023-11-21T07:13:17;34.43;;;14.90;;
21046;SDS011;10682;50.874;3.656;2023-11-21T07:15:44;27.77;;;13.27;;
21046;SDS011;10682;50.874;3.656;2023-11-21T07:18:11;29.60;;;15.10;;
21046;SDS011;10682;50.874;3.656;2023-11-21T07:20:39;31.90;;;15.60;;
21046;SDS011;10682;50.874;3.656;2023-11-21T07:23:06;32.73;;;16.03;;
21046;SDS011;10682;50.874;3.656;2023-11-21T07:25:34;34.43;;;15.23;;
21046;SDS011;10682;50.874;3.656;2023-11-21T07:28:01;31.50;;;15.50;;
21046;SDS011;10682;50.874;3.656;2023-11-21T07:30:28;32.90;;;15.90;;
21046;SDS011;10682;50.874;3.656;2023-11-21T07:32:55;37.57;;;16.23;;
21046;SDS011;10682;50.874;3.656;2023-11-21T07:35:22;43.73;;;19.37;;
21046;SDS011;10682;50.874;3.656;2023-11-21T07:37:50;50.23;;;20.90;;
21046;SDS011;10682;50.874;3.656;2023-11-21T07:40:17;52.83;;;21.27;;
21046;SDS011;10682;50.874;3.656;2023-11-21T07:42:44;44.57;;;19.63;;
21046;SDS011;10682;50.874;3.656;2023-11-21T07:45:11;64.63;;;22.57;;
21046;SDS011;10682;50.874;3.656;2023-11-21T07:47:38;49.83;;;20.50;;
21046;SDS011;10682;50.874;3.656;2023-11-21T07:50:06;44.93;;;18.87;;
21046;SDS011;10682;50.874;3.656;2023-11-21T07:52:34;52.57;;;21.10;;
21046;SDS011;10682;50.874;3.656;2023-11-21T07:55:01;62.07;;;20.87;;
21046;SDS011;10682;50.874;3.656;2023-11-21T07:57:29;49.23;;;19.50;;
21046;SDS011;10682;50.874;3.656;2023-11-21T07:59:56;46.53;;;19.07;;
21046;SDS011;10682;50.874;3.656;2023-11-21T08:02:24;60.07;;;21.20;;
21046;SDS011;10682;50.874;3.656;2023-11-21T08:04:52;45.83;;;18.03;;
21046;SDS011;10682;50.874;3.656;2023-11-21T08:07:24;45.27;;;18.83;;
21046;SDS011;10682;50.874;3.656;2023-11-21T08:12:51;43.97;;;18.37;;
21046;SDS011;10682;50.874;3.656;2023-11-21T08:15:20;37.30;;;15.87;;
21046;SDS011;10682;50.874;3.656;2023-11-21T08:17:47;41.03;;;17.33;;
21046;SDS011;10682;50.874;3.656;2023-11-21T08:20:15;40.77;;;18.27;;
21046;SDS011;10682;50.874;3.656;2023-11-21T08:22:45;38.23;;;16.10;;
21046;SDS011;10682;50.874;3.656;2023-11-21T08:25:15;38.00;;;17.30;;
21046;SDS011;10682;50.874;3.656;2023-11-21T08:27:46;34.20;;;14.50;;
21046;SDS011;10682;50.874;3.656;2023-11-21T08:30:13;36.03;;;15.27;;
21046;SDS011;10682;50.874;3.656;2023-11-21T08:32:43;30.27;;;14.03;;
21046;SDS011;10682;50.874;3.656;2023-11-21T08:35:10;29.40;;;14.13;;
21046;SDS011;10682;50.874;3.656;2023-11-21T08:37:38;32.33;;;15.23;;
21046;SDS011;10682;50.874;3.656;2023-11-21T08:40:06;32.57;;;14.67;;
21046;SDS011;10682;50.874;3.656;2023-11-21T08:42:43;29.00;;;13.77;;
21046;SDS011;10682;50.874;3.656;2023-11-21T08:45:11;30.57;;;13.50;;
21046;SDS011;10682;50.874;3.656;2023-11-21T08:47:39;28.60;;;13.53;;
21046;SDS011;10682;50.874;3.656;2023-11-21T08:50:06;27.23;;;12.03;;
21046;SDS011;10682;50.874;3.656;2023-11-21T08:52:34;25.13;;;12.30;;
21046;SDS011;10682;50.874;3.656;2023-11-21T08:55:06;26.53;;;12.40;;
21046;SDS011;10682;50.874;3.656;2023-11-21T08:57:39;26.90;;;12.47;;
21046;SDS011;10682;50.874;3.656;2023-11-21T09:00:08;21.47;;;10.50;;
21046;SDS011;10682;50.874;3.656;2023-11-21T09:02:38;20.57;;;10.97;;
21046;SDS011;10682;50.874;3.656;2023-11-21T09:05:08;21.33;;;10.53;;
21046;SDS011;10682;50.874;3.656;2023-11-21T09:07:39;19.50;;;10.03;;
21046;SDS011;10682;50.874;3.656;2023-11-21T09:10:08;24.33;;;11.50;;
21046;SDS011;10682;50.874;3.656;2023-11-21T09:12:36;22.87;;;11.37;;
21046;SDS011;10682;50.874;3.656;2023-11-21T09:15:04;19.50;;;10.33;;
21046;SDS011;10682;50.874;3.656;2023-11-21T09:17:33;22.63;;;11.23;;
21046;SDS011;10682;50.874;3.656;2023-11-21T09:20:01;21.10;;;11.13;;
21046;SDS011;10682;50.874;3.656;2023-11-21T09:22:32;20.67;;;11.23;;
21046;SDS011;10682;50.874;3.656;2023-11-21T09:24:59;21.53;;;11.83;;
21046;SDS011;10682;50.874;3.656;2023-11-21T09:27:26;18.53;;;10.43;;
21046;SDS011;10682;50.874;3.656;2023-11-21T09:29:53;21.10;;;10.47;;
21046;SDS011;10682;50.874;3.656;2023-11-21T09:32:21;25.13;;;10.93;;
21046;SDS011;10682;50.874;3.656;2023-11-21T09:34:49;25.53;;;10.67;;
21046;SDS011;10682;50.874;3.656;2023-11-21T09:37:16;20.03;;;11.33;;
21046;SDS011;10682;50.874;3.656;2023-11-21T09:39:44;23.33;;;13.10;;
21046;SDS011;10682;50.874;3.656;2023-11-21T09:42:19;21.53;;;11.30;;
21046;SDS011;10682;50.874;3.656;2023-11-21T09:47:46;17.17;;;9.73;;
21046;SDS011;10682;50.874;3.656;2023-11-21T09:50:14;19.23;;;10.33;;
21046;SDS011;10682;50.874;3.656;2023-11-21T09:53:09;51.77;;;11.73;;
21046;SDS011;10682;50.874;3.656;2023-11-21T09:55:34;21.60;;;10.40;;
21046;SDS011;10682;50.874;3.656;2023-11-21T09:58:04;16.57;;;10.10;;
21046;SDS011;10682;50.874;3.656;2023-11-21T10:00:43;15.57;;;8.57;;
21046;SDS011;10682;50.874;3.656;2023-11-21T10:03:14;12.50;;;8.07;;
21046;SDS011;10682;50.874;3.656;2023-11-21T10:05:43;13.70;;;7.43;;
21046;SDS011;10682;50.874;3.656;2023-11-21T10:08:16;14.30;;;7.53;;
21046;SDS011;10682;50.874;3.656;2023-11-21T10:10:45;11.90;;;7.00;;
21046;SDS011;10682;50.874;3.656;2023-11-21T10:13:16;11.80;;;6.20;;
21046;SDS011;10682;50.874;3.656;2023-11-21T10:15:49;10.83;;;5.80;;
21046;SDS011;10682;50.874;3.656;2023-11-21T10:18:19;11.43;;;5.57;;
21046;SDS011;10682;50.874;3.656;2023-11-21T10:20:49;10.50;;;5.33;;
21046;SDS011;10682;50.874;3.656;2023-11-21T10:23:21;9.47;;;5.03;;
21046;SDS011;10682;50.874;3.656;2023-11-21T10:25:52;8.23;;;5.20;;
21046;SDS011;10682;50.874;3.656;2023-11-21T10:28:21;12.47;;;5.33;;
21046;SDS011;10682;50.874;3.656;2023-11-21T10:30:48;9.73;;;5.00;;
21046;SDS011;10682;50.874;3.656;2023-11-21T10:35:59;10.40;;;4.77;;
21046;SDS011;10682;50.874;3.656;2023-11-21T10:38:27;11.67;;;4.20;;
21046;SDS011;10682;50.874;3.656;2023-11-21T10:43:44;6.97;;;3.83;;
21046;SDS011;10682;50.874;3.656;2023-11-21T10:46:12;12.93;;;4.40;;
21046;SDS011;10682;50.874;3.656;2023-11-21T10:48:41;20.83;;;5.27;;
21046;SDS011;10682;50.874;3.656;2023-11-21T10:51:10;8.70;;;4.20;;
21046;SDS011;10682;50.874;3.656;2023-11-21T10:53:40;13.67;;;4.93;;
21046;SDS011;10682;50.874;3.656;2023-11-21T10:56:10;10.63;;;4.13;;
21046;SDS011;10682;50.874;3.656;2023-11-21T10:58:50;12.77;;;4.67;;
21046;SDS011;10682;50.874;3.656;2023-11-21T11:01:30;14.87;;;4.57;;
21046;SDS011;10682;50.874;3.656;2023-11-21T11:04:03;14.03;;;4.83;;
21046;SDS011;10682;50.874;3.656;2023-11-21T11:06:33;8.43;;;5.00;;
21046;SDS011;10682;50.874;3.656;2023-11-21T11:09:01;11.60;;;4.50;;
21046;SDS011;10682;50.874;3.656;2023-11-21T11:11:30;11.47;;;4.57;;
21046;SDS011;10682;50.874;3.656;2023-11-21T11:14:02;11.23;;;4.50;;
21046;SDS011;10682;50.874;3.656;2023-11-21T11:16:30;15.23;;;4.77;;
21046;SDS011;10682;50.874;3.656;2023-11-21T11:18:57;10.98;;;3.78;;
21046;SDS011;10682;50.874;3.656;2023-11-21T11:27:28;12.13;;;3.40;;
21046;SDS011;10682;50.874;3.656;2023-11-21T11:34:00;11.23;;;3.50;;
21046;SDS011;10682;50.874;3.656;2023-11-21T11:36:46;11.77;;;3.30;;
21046;SDS011;10682;50.874;3.656;2023-11-21T11:42:08;11.10;;;2.97;;
21046;SDS011;10682;50.874;3.656;2023-11-21T11:47:23;11.20;;;3.30;;
21046;SDS011;10682;50.874;3.656;2023-11-21T11:50:05;12.00;;;2.97;;
21046;SDS011;10682;50.874;3.656;2023-11-21T11:52:43;18.63;;;3.17;;
21046;SDS011;10682;50.874;3.656;2023-11-21T11:55:14;7.93;;;3.10;;
21046;SDS011;10682;50.874;3.656;2023-11-21T11:57:46;9.13;;;3.30;;
21046;SDS011;10682;50.874;3.656;2023-11-21T12:02:48;7.40;;;2.47;;
21046;SDS011;10682;50.874;3.656;2023-11-21T12:05:21;9.30;;;2.37;;
21046;SDS011;10682;50.874;3.656;2023-11-21T12:07:57;13.57;;;2.47;;
21046;SDS011;10682;50.874;3.656;2023-11-21T12:10:27;10.37;;;2.10;;
21046;SDS011;10682;50.874;3.656;2023-11-21T12:12:57;9.87;;;2.60;;
21046;SDS011;10682;50.874;3.656;2023-11-21T12:15:27;6.43;;;2.30;;
21046;SDS011;10682;50.874;3.656;2023-11-21T12:17:56;11.43;;;2.50;;
21046;SDS011;10682;50.874;3.656;2023-11-21T12:20:27;9.47;;;2.30;;
21046;SDS011;10682;50.874;3.656;2023-11-21T12:22:55;8.60;;;2.23;;
21046;SDS011;10682;50.874;3.656;2023-11-21T12:25:27;13.47;;;3.30;;
21046;SDS011;10682;50.874;3.656;2023-11-21T12:27:58;11.43;;;2.70;;
21046;SDS011;10682;50.874;3.656;2023-11-21T12:30:29;9.63;;;3.10;;
21046;SDS011;10682;50.874;3.656;2023-11-21T12:32:59;7.87;;;2.53;;
21046;SDS011;10682;50.874;3.656;2023-11-21T12:35:30;7.60;;;1.93;;
21046;SDS011;10682;50.874;3.656;2023-11-21T12:38:03;4.70;;;2.00;;
21046;SDS011;10682;50.874;3.656;2023-11-21T12:40:35;7.77;;;1.90;;
21046;SDS011;10682;50.874;3.656;2023-11-21T12:43:03;5.43;;;1.93;;
21046;SDS011;10682;50.874;3.656;2023-11-21T12:45:31;6.03;;;1.73;;
21046;SDS011;10682;50.874;3.656;2023-11-21T12:48:00;7.77;;;1.90;;
21046;SDS011;10682;50.874;3.656;2023-11-21T12:50:38;7.57;;;1.90;;
21046;SDS011;10682;50.874;3.656;2023-11-21T12:53:07;6.93;;;2.37;;
21046;SDS011;10682;50.874;3.656;2023-11-21T12:55:38;3.07;;;1.60;;
21046;SDS011;10682;50.874;3.656;2023-11-21T12:58:09;5.80;;;1.83;;
21046;SDS011;10682;50.874;3.656;2023-11-21T13:00:45;5.23;;;2.10;;
21046;SDS011;10682;50.874;3.656;2023-11-21T13:03:16;6.70;;;2.10;;
21046;SDS011;10682;50.874;3.656;2023-11-21T13:05:46;8.47;;;2.30;;
21046;SDS011;10682;50.874;3.656;2023-11-21T13:08:19;8.70;;;2.70;;
21046;SDS011;10682;50.874;3.656;2023-11-21T13:10:50;7.67;;;2.70;;
21046;SDS011;10682;50.874;3.656;2023-11-21T13:13:22;7.20;;;2.80;;
21046;SDS011;10682;50.874;3.656;2023-11-21T13:15:56;9.10;;;3.40;;
21046;SDS011;10682;50.874;3.656;2023-11-21T13:18:28;7.33;;;3.00;;
21046;SDS011;10682;50.874;3.656;2023-11-21T13:21:04;9.60;;;3.13;;
21046;SDS011;10682;50.874;3.656;2023-11-21T13:23:42;6.20;;;3.33;;
21046;SDS011;10682;50.874;3.656;2023-11-21T13:26:12;5.47;;;3.13;;
21046;SDS011;10682;50.874;3.656;2023-11-21T13:28:42;10.63;;;3.80;;
21046;SDS011;10682;50.874;3.656;2023-11-21T13:31:14;10.07;;;4.70;;
21046;SDS011;10682;50.874;3.656;2023-11-21T13:33:49;7.40;;;4.17;;
21046;SDS011;10682;50.874;3.656;2023-11-21T13:36:31;10.87;;;4.37;;
21046;SDS011;10682;50.874;3.656;2023-11-21T13:39:02;6.73;;;3.70;;
21046;SDS011;10682;50.874;3.656;2023-11-21T13:41:52;8.17;;;3.60;;
21046;SDS011;10682;50.874;3.656;2023-11-21T13:44:21;7.13;;;4.00;;
21046;SDS011;10682;50.874;3.656;2023-11-21T13:47:07;5.97;;;3.97;;
21046;SDS011;10682;50.874;3.656;2023-11-21T13:49:35;17.80;;;5.10;;
21046;SDS011;10682;50.874;3.656;2023-11-21T13:52:02;6.77;;;4.43;;
21046;SDS011;10682;50.874;3.656;2023-11-21T13:54:30;9.67;;;4.90;;
21046;SDS011;10682;50.874;3.656;2023-11-21T13:56:57;7.33;;;4.00;;
21046;SDS011;10682;50.874;3.656;2023-11-21T13:59:27;10.50;;;4.73;;
21046;SDS011;10682;50.874;3.656;2023-11-21T14:01:56;8.20;;;4.17;;
21046;SDS011;10682;50.874;3.656;2023-11-21T14:04:27;9.40;;;3.73;;
21046;SDS011;10682;50.874;3.656;2023-11-21T14:06:57;7.40;;;3.60;;
21046;SDS011;10682;50.874;3.656;2023-11-21T14:09:28;4.90;;;3.37;;
21046;SDS011;10682;50.874;3.656;2023-11-21T14:12:10;4.70;;;3.10;;
21046;SDS011;10682;50.874;3.656;2023-11-21T14:14:39;6.77;;;3.30;;
21046;SDS011;10682;50.874;3.656;2023-11-21T14:17:06;4.57;;;2.60;;
21046;SDS011;10682;50.874;3.656;2023-11-21T14:19:34;3.80;;;2.73;;
21046;SDS011;10682;50.874;3.656;2023-11-21T14:22:05;5.53;;;2.80;;
21046;SDS011;10682;50.874;3.656;2023-11-21T14:24:36;5.30;;;2.40;;
21046;SDS011;10682;50.874;3.656;2023-11-21T14:27:03;5.63;;;2.80;;
21046;SDS011;10682;50.874;3.656;2023-11-21T14:29:32;6.57;;;2.80;;
21046;SDS011;10682;50.874;3.656;2023-11-21T14:32:05;4.37;;;2.30;;
21046;SDS011;10682;50.874;3.656;2023-11-21T14:34:34;3.83;;;2.50;;
21046;SDS011;10682;50.874;3.656;2023-11-21T14:37:01;5.90;;;3.10;;
21046;SDS011;10682;50.874;3.656;2023-11-21T14:39:31;7.20;;;2.77;;
21046;SDS011;10682;50.874;3.656;2023-11-21T14:42:04;8.30;;;4.07;;
21046;SDS011;10682;50.874;3.656;2023-11-21T14:44:34;6.93;;;4.10;;
21046;SDS011;10682;50.874;3.656;2023-11-21T14:47:05;9.07;;;4.47;;
21046;SDS011;10682;50.874;3.656;2023-11-21T14:53:01;6.07;;;4.53;;
21046;SDS011;10682;50.874;3.656;2023-11-21T14:55:34;9.07;;;4.70;;
21046;SDS011;10682;50.874;3.656;2023-11-21T14:58:26;5.83;;;3.80;;
21046;SDS011;10682;50.874;3.656;2023-11-21T15:00:54;5.53;;;3.50;;
21046;SDS011;10682;50.874;3.656;2023-11-21T15:03:26;5.10;;;3.63;;
21046;SDS011;10682;50.874;3.656;2023-11-21T15:06:03;4.77;;;3.47;;
21046;SDS011;10682;50.874;3.656;2023-11-21T15:08:51;5.93;;;3.77;;
21046;SDS011;10682;50.874;3.656;2023-11-21T15:11:50;6.90;;;3.50;;
21046;SDS011;10682;50.874;3.656;2023-11-21T15:14:21;6.07;;;3.80;;
21046;SDS011;10682;50.874;3.656;2023-11-21T15:16:51;6.60;;;4.47;;